Preston, Connecticut
Current Conditions -  °F | °C
As of 9:56 PM on Saturday 22 Nov 2014 (Local Time) from KGON Reporting Station
Overcast Overcast  
Wind Chill: 36°   Ceiling: 5500
Heat Index: 45°   Visibility: 7mi
Dew Point: 28°   Wind: 24mph
Humidity: 52%   Direction: 250°WSW
Pressure: 30.16"   Gusts: 36mph
Location:  41.51°N, 72.01°W
Report Text: KGON 230256Z 25021G31KT 7SM OVC055 07/M02 A3016 RMK AO2 PK WND 25033/0226 SLP213 T00721022 56013
Loading
Personal Weather Stations






























Interactive Weather Map New forecast layout! Learn more

10-Day Weather Forecast

Advertisements
Track Severe Weather on mobile